Time;durP1;ratioP1;P1;durP2;ratioP2;P2;SDS_P1;SDS_P2;PMS_P1;PMS_P2;Temp;Humidity;BMP_temperature;BMP_pressure;BME280_temperature;BME280_humidity;BME280_pressure;Samples;Min_cycle;Max_cycle;Signal;HPM_P1;HPM_P2
2021/07/06 00:02:19;;;;;;;4.78;1.83;;;17.30;99.90;;;;;;5084340;28;20963;-67
2021/07/06 00:04:48;;;;;;;3.17;1.80;;;17.30;99.90;;;;;;5085023;28;20097;-68
2021/07/06 00:07:17;;;;;;;5.13;1.80;;;17.30;99.90;;;;;;5085343;28;20418;-68
2021/07/06 00:09:44;;;;;;;5.03;1.92;;;17.30;99.90;;;;;;5084818;28;20417;-68
2021/07/06 00:12:13;;;;;;;6.80;2.20;;;17.20;99.90;;;;;;5086055;28;20104;-68
2021/07/06 00:14:39;;;;;;;3.80;1.92;;;17.30;99.90;;;;;;5087125;28;20098;-68
2021/07/06 00:17:08;;;;;;;4.18;1.90;;;17.20;99.90;;;;;;5084316;28;20047;-68
2021/07/06 00:19:35;;;;;;;6.28;2.08;;;17.20;99.90;;;;;;5085501;28;20048;-68
2021/07/06 00:22:02;;;;;;;5.95;2.40;;;17.20;99.90;;;;;;5085121;28;20097;-68
2021/07/06 00:24:29;;;;;;;4.28;1.65;;;17.10;99.90;;;;;;5085496;28;20048;-68
2021/07/06 00:26:56;;;;;;;5.13;1.90;;;17.20;99.90;;;;;;5085618;28;20051;-68
2021/07/06 00:29:25;;;;;;;2.95;1.83;;;17.10;99.90;;;;;;5083076;28;20496;-67
2021/07/06 00:31:52;;;;;;;4.53;1.85;;;17.10;99.90;;;;;;5086202;28;20450;-68
2021/07/06 00:34:19;;;;;;;5.18;1.90;;;17.10;99.90;;;;;;5082800;28;20701;-68
2021/07/06 00:36:46;;;;;;;3.30;1.50;;;17.10;99.90;;;;;;5086240;28;20493;-68
2021/07/06 00:39:13;;;;;;;3.67;1.95;;;17.20;99.90;;;;;;5084323;28;20040;-68
2021/07/06 00:41:40;;;;;;;6.57;1.90;;;17.10;99.90;;;;;;5084096;28;20066;-67
2021/07/06 00:44:14;;;;;;;5.05;1.95;;;17.10;99.90;;;;;;5084668;28;20048;-68
2021/07/06 00:46:43;;;;;;;5.78;1.80;;;17.10;99.90;;;;;;5085127;28;20482;-68
2021/07/06 00:49:10;;;;;;;5.78;2.03;;;17.10;99.90;;;;;;5084166;28;20209;-68
2021/07/06 00:51:37;;;;;;;5.45;1.83;;;17.10;99.90;;;;;;5084318;28;20128;-69
2021/07/06 00:54:05;;;;;;;3.22;1.63;;;17.10;99.90;;;;;;5081158;28;20047;-68
2021/07/06 00:56:32;;;;;;;5.53;2.55;;;17.20;99.90;;;;;;5082854;28;20135;-68
2021/07/06 00:59:00;;;;;;;3.05;1.73;;;17.20;99.90;;;;;;5084488;28;20075;-68
2021/07/06 01:01:27;;;;;;;3.17;1.35;;;17.20;99.90;;;;;;5082691;28;20417;-68
2021/07/06 01:03:56;;;;;;;2.80;1.42;;;17.30;99.90;;;;;;5085762;28;20051;-68
2021/07/06 01:06:23;;;;;;;2.72;1.40;;;17.30;99.90;;;;;;5081355;28;20083;-67
2021/07/06 01:08:52;;;;;;;5.15;1.85;;;17.30;99.90;;;;;;5082493;28;20097;-68
2021/07/06 01:11:19;;;;;;;3.70;1.85;;;17.30;99.90;;;;;;5082535;28;20120;-68
2021/07/06 01:13:46;;;;;;;5.10;1.70;;;17.30;99.90;;;;;;5084173;28;20087;-68
2021/07/06 01:16:13;;;;;;;2.85;1.73;;;17.30;99.90;;;;;;5077456;28;20401;-67
2021/07/06 01:18:40;;;;;;;3.38;1.65;;;17.30;99.90;;;;;;5080046;28;20075;-67
2021/07/06 01:21:09;;;;;;;2.72;1.58;;;17.30;99.90;;;;;;5082913;28;20047;-68
2021/07/06 01:23:37;;;;;;;4.53;1.58;;;17.30;99.90;;;;;;5081660;28;20477;-68
2021/07/06 01:26:07;;;;;;;3.05;1.45;;;17.20;99.90;;;;;;5081978;28;20135;-68
2021/07/06 01:28:35;;;;;;;3.63;1.70;;;17.20;99.90;;;;;;5082155;28;20100;-68
2021/07/06 01:31:02;;;;;;;5.22;1.88;;;17.20;99.90;;;;;;5081681;28;20076;-68
2021/07/06 01:33:31;;;;;;;3.17;1.77;;;17.10;99.90;;;;;;5081005;28;20150;-68
2021/07/06 01:36:03;;;;;;;5.03;1.80;;;17.10;99.90;;;;;;5080969;28;20055;-67
2021/07/06 01:38:30;;;;;;;6.10;1.80;;;17.10;99.90;;;;;;5083102;28;20040;-67
2021/07/06 01:40:59;;;;;;;3.40;1.70;;;17.00;99.90;;;;;;5081055;28;20072;-67
2021/07/06 01:43:26;;;;;;;6.55;2.00;;;17.00;99.90;;;;;;5081025;28;20130;-67
2021/07/06 01:45:54;;;;;;;4.20;2.00;;;17.00;99.90;;;;;;5079968;28;20083;-67
2021/07/06 01:48:21;;;;;;;5.57;1.58;;;16.90;99.90;;;;;;5075790;28;20079;-67
2021/07/06 01:50:48;;;;;;;4.03;1.80;;;17.00;99.90;;;;;;5083608;28;20083;-67
2021/07/06 01:53:17;;;;;;;5.55;2.15;;;16.90;99.90;;;;;;5082073;28;20060;-67
2021/07/06 01:55:45;;;;;;;4.82;2.08;;;16.90;99.90;;;;;;5084170;28;20478;-67
2021/07/06 01:58:17;;;;;;;7.28;2.08;;;16.80;99.90;;;;;;5084287;28;20461;-67
2021/07/06 02:00:47;;;;;;;4.90;2.10;;;16.80;99.90;;;;;;5083136;28;20051;-67
2021/07/06 02:03:14;;;;;;;5.20;1.95;;;16.80;99.90;;;;;;5080354;28;20048;-67
2021/07/06 02:05:43;;;;;;;3.78;2.00;;;16.80;99.90;;;;;;5081425;28;20140;-67
2021/07/06 02:08:12;;;;;;;5.82;2.17;;;16.80;99.90;;;;;;5082950;28;20126;-68
2021/07/06 02:10:40;;;;;;;6.28;2.35;;;16.70;99.90;;;;;;5079402;28;20055;-67
2021/07/06 02:13:10;;;;;;;4.13;2.00;;;16.80;99.90;;;;;;5080242;28;20097;-67
2021/07/06 02:15:39;;;;;;;3.92;1.95;;;16.80;99.90;;;;;;5085220;28;20044;-67
2021/07/06 02:18:06;;;;;;;4.30;1.95;;;16.80;99.90;;;;;;5079882;28;20075;-67
2021/07/06 02:20:33;;;;;;;8.43;2.05;;;16.80;99.90;;;;;;5083524;28;20116;-67
2021/07/06 02:23:06;;;;;;;5.30;1.90;;;16.90;99.90;;;;;;5082796;28;20043;-68
2021/07/06 02:25:33;;;;;;;5.00;1.98;;;16.80;99.90;;;;;;5081601;28;20561;-67
2021/07/06 02:28:00;;;;;;;4.95;1.80;;;16.80;99.90;;;;;;5082893;28;20615;-67
2021/07/06 02:30:27;;;;;;;4.03;1.73;;;16.80;99.90;;;;;;5082255;28;20052;-67
2021/07/06 02:32:55;;;;;;;7.85;1.88;;;16.80;99.90;;;;;;5082666;28;20413;-68
2021/07/06 02:35:27;;;;;;;5.30;2.10;;;16.80;99.90;;;;;;5080516;28;20052;-67
2021/07/06 02:37:54;;;;;;;4.32;2.05;;;16.80;99.90;;;;;;5081953;28;21040;-67
2021/07/06 02:40:21;;;;;;;5.35;2.10;;;16.80;99.90;;;;;;5082748;28;20052;-67
2021/07/06 02:42:48;;;;;;;5.55;2.08;;;16.80;99.90;;;;;;5083099;28;20705;-67
2021/07/06 02:45:17;;;;;;;5.68;2.00;;;16.80;99.90;;;;;;5084977;28;20075;-67
2021/07/06 02:47:44;;;;;;;5.28;2.10;;;16.80;99.90;;;;;;5082319;28;20090;-68
2021/07/06 02:50:14;;;;;;;7.00;2.08;;;16.80;99.90;;;;;;5082166;28;20080;-67
2021/07/06 02:52:41;;;;;;;2.88;1.85;;;16.80;99.90;;;;;;5083452;28;20147;-67
2021/07/06 02:55:09;;;;;;;3.03;1.80;;;16.80;99.90;;;;;;5085107;28;20056;-67
2021/07/06 02:57:36;;;;;;;4.78;1.85;;;16.80;99.90;;;;;;5087944;28;20076;-67
2021/07/06 03:00:08;;;;;;;3.28;1.80;;;16.80;99.90;;;;;;5085409;28;20572;-68
2021/07/06 03:02:35;;;;;;;4.45;2.22;;;16.80;99.90;;;;;;5085073;28;20044;-68
2021/07/06 03:05:02;;;;;;;3.78;1.88;;;16.70;99.90;;;;;;5084920;28;20092;-67
2021/07/06 03:07:31;;;;;;;5.75;2.00;;;16.70;99.90;;;;;;5084894;28;20051;-67
2021/07/06 03:09:58;;;;;;;4.22;2.35;;;16.80;99.90;;;;;;5087019;28;20048;-68
2021/07/06 03:12:25;;;;;;;3.83;1.80;;;16.80;99.90;;;;;;5086124;28;20097;-67
2021/07/06 03:14:52;;;;;;;4.47;2.00;;;16.70;99.90;;;;;;5084233;28;20089;-68
2021/07/06 03:17:19;;;;;;;3.95;1.92;;;16.80;99.90;;;;;;5084620;28;20101;-68
2021/07/06 03:19:45;;;;;;;4.80;1.95;;;16.70;99.90;;;;;;5082974;28;21225;-68
2021/07/06 03:22:12;;;;;;;3.85;2.05;;;16.70;99.90;;;;;;5085032;28;20097;-67
2021/07/06 03:24:41;;;;;;;6.20;2.22;;;16.70;99.90;;;;;;5088481;28;20147;-67
2021/07/06 03:27:08;;;;;;;9.02;2.42;;;16.70;99.90;;;;;;5089043;28;20073;-68
2021/07/06 03:29:35;;;;;;;4.78;2.03;;;16.90;99.90;;;;;;5083229;28;20990;-68
2021/07/06 03:32:02;;;;;;;4.35;2.08;;;16.70;99.90;;;;;;5087183;28;20397;-67
2021/07/06 03:34:29;;;;;;;4.35;2.00;;;16.70;99.90;;;;;;5085457;28;20058;-67
2021/07/06 03:36:56;;;;;;;6.63;2.60;;;16.70;99.90;;;;;;5085314;28;20067;-67
2021/07/06 03:39:23;;;;;;;6.15;1.95;;;16.70;99.90;;;;;;5085427;28;20132;-67
2021/07/06 03:41:51;;;;;;;4.38;1.90;;;16.70;99.90;;;;;;5083818;28;20052;-67
2021/07/06 03:44:18;;;;;;;4.70;1.90;;;16.80;99.90;;;;;;5086182;28;20524;-68
2021/07/06 03:46:45;;;;;;;5.22;2.15;;;16.80;99.90;;;;;;5087249;28;20044;-67
2021/07/06 03:49:12;;;;;;;5.18;2.03;;;16.80;99.90;;;;;;5085244;28;20087;-67
2021/07/06 03:51:39;;;;;;;4.85;1.88;;;16.70;99.90;;;;;;5084692;28;20131;-67
2021/07/06 03:54:06;;;;;;;5.00;1.98;;;16.70;99.90;;;;;;5086506;28;20474;-67
2021/07/06 03:56:33;;;;;;;5.20;2.25;;;16.60;99.90;;;;;;5083800;28;20144;-68
2021/07/06 03:59:01;;;;;;;5.60;2.75;;;16.60;99.90;;;;;;5085981;28;20105;-67
2021/07/06 04:01:28;;;;;;;5.60;2.30;;;16.60;99.90;;;;;;5084633;28;20138;-67
2021/07/06 04:03:55;;;;;;;9.30;2.25;;;16.60;99.90;;;;;;5086103;28;20047;-67
2021/07/06 04:06:22;;;;;;;5.40;3.30;;;16.60;99.90;;;;;;5086207;28;20086;-68
2021/07/06 04:08:49;;;;;;;5.32;2.25;;;16.60;99.90;;;;;;5084760;28;20132;-68
2021/07/06 04:11:16;;;;;;;4.03;2.10;;;16.70;99.90;;;;;;5088971;28;20565;-67
2021/07/06 04:13:43;;;;;;;4.35;2.30;;;16.80;99.90;;;;;;5086859;28;20105;-68
2021/07/06 04:16:11;;;;;;;5.53;2.30;;;16.80;99.90;;;;;;5085770;28;20113;-68
2021/07/06 04:18:38;;;;;;;5.05;2.08;;;17.00;99.90;;;;;;5087227;28;20044;-67
2021/07/06 04:21:07;;;;;;;3.70;1.98;;;17.00;99.90;;;;;;5088022;28;20555;-67
2021/07/06 04:23:34;;;;;;;4.55;2.20;;;17.10;99.90;;;;;;5088406;28;20048;-67
2021/07/06 04:26:01;;;;;;;5.57;2.00;;;17.20;99.90;;;;;;5087650;28;20129;-67
2021/07/06 04:28:28;;;;;;;4.50;1.90;;;17.20;99.90;;;;;;5085278;28;20052;-67
2021/07/06 04:30:55;;;;;;;4.85;2.00;;;17.30;99.90;;;;;;5088448;28;20125;-67
2021/07/06 04:33:24;;;;;;;6.15;1.95;;;17.30;99.90;;;;;;5089250;28;20488;-67
2021/07/06 04:35:51;;;;;;;3.72;2.00;;;17.30;99.90;;;;;;5086921;28;20097;-67
2021/07/06 04:38:18;;;;;;;3.45;1.88;;;17.40;99.90;;;;;;5086626;28;20091;-67
2021/07/06 04:40:45;;;;;;;6.88;2.30;;;17.40;99.90;;;;;;5086184;28;20052;-68
2021/07/06 04:43:12;;;;;;;9.88;2.17;;;17.40;99.90;;;;;;5088096;28;20143;-67
2021/07/06 04:45:39;;;;;;;4.25;2.10;;;17.40;99.90;;;;;;5083734;28;20514;-67
2021/07/06 04:48:06;;;;;;;5.55;1.80;;;17.50;99.90;;;;;;5087175;28;20386;-67
2021/07/06 04:50:35;;;;;;;5.07;2.13;;;17.50;99.90;;;;;;5087654;28;20048;-67
2021/07/06 04:53:03;;;;;;;3.40;2.10;;;17.60;99.90;;;;;;5086807;28;20055;-67
2021/07/06 04:55:30;;;;;;;5.28;2.00;;;17.60;99.90;;;;;;5084868;28;20043;-68
2021/07/06 04:57:57;;;;;;;4.28;1.80;;;17.60;99.90;;;;;;5086056;28;20079;-67
2021/07/06 05:00:24;;;;;;;3.42;1.90;;;17.70;99.90;;;;;;5086938;28;20089;-68
2021/07/06 05:02:51;;;;;;;4.78;1.45;;;17.70;99.90;;;;;;5084643;28;20454;-67
2021/07/06 05:05:19;;;;;;;3.40;1.58;;;17.80;99.90;;;;;;5085646;28;20093;-67
2021/07/06 05:07:47;;;;;;;3.30;1.50;;;17.90;99.90;;;;;;5084657;28;20121;-68
2021/07/06 05:10:14;;;;;;;4.07;1.85;;;18.00;99.90;;;;;;5082068;28;20127;-68
2021/07/06 05:12:42;;;;;;;5.50;1.52;;;18.10;99.90;;;;;;5083111;28;20566;-67
2021/07/06 05:15:09;;;;;;;4.18;1.60;;;18.20;99.90;;;;;;5082895;28;20124;-67
2021/07/06 05:17:36;;;;;;;5.10;2.00;;;18.20;99.90;;;;;;5081921;28;20044;-68
2021/07/06 05:20:05;;;;;;;4.32;1.75;;;18.30;99.90;;;;;;5085304;28;20044;-67
2021/07/06 05:22:32;;;;;;;3.22;1.73;;;18.40;99.90;;;;;;5083022;28;20102;-67
2021/07/06 05:25:00;;;;;;;3.10;1.63;;;18.50;99.90;;;;;;5082824;28;20844;-68
2021/07/06 05:27:27;;;;;;;3.28;1.75;;;18.60;99.90;;;;;;5082649;28;20104;-68
2021/07/06 05:29:54;;;;;;;6.47;1.58;;;18.60;99.90;;;;;;5083545;28;20048;-68
2021/07/06 05:32:22;;;;;;;3.33;1.50;;;18.70;99.90;;;;;;5083700;28;20553;-67
2021/07/06 05:34:51;;;;;;;4.85;1.88;;;18.80;99.90;;;;;;5082748;28;20050;-68
2021/07/06 05:37:18;;;;;;;4.30;1.48;;;18.90;99.90;;;;;;5086327;28;20059;-68
2021/07/06 05:39:45;;;;;;;11.75;1.88;;;18.90;99.90;;;;;;5085522;28;20134;-67
2021/07/06 05:42:13;;;;;;;3.78;1.67;;;19.00;99.90;;;;;;5084371;28;20101;-68
2021/07/06 05:44:43;;;;;;;4.20;1.77;;;19.00;99.90;;;;;;5087094;28;20079;-67
2021/07/06 05:47:11;;;;;;;7.13;1.55;;;19.10;99.90;;;;;;5084723;28;20105;-67
2021/07/06 05:49:38;;;;;;;2.45;1.55;;;19.20;99.90;;;;;;5084871;28;20055;-68
2021/07/06 05:52:05;;;;;;;3.28;1.45;;;19.30;99.90;;;;;;5083110;28;20043;-68
2021/07/06 05:54:32;;;;;;;3.72;1.58;;;19.30;99.90;;;;;;5083786;28;20048;-67
2021/07/06 05:56:59;;;;;;;3.60;1.50;;;19.40;99.90;;;;;;5082762;28;20130;-68
2021/07/06 05:59:27;;;;;;;3.38;1.58;;;19.50;99.90;;;;;;5083468;28;20074;-68
2021/07/06 06:01:54;;;;;;;7.47;1.50;;;19.60;99.90;;;;;;5085690;28;20078;-68
2021/07/06 06:04:21;;;;;;;6.13;1.45;;;19.70;99.90;;;;;;5085044;28;20052;-68
2021/07/06 06:06:48;;;;;;;3.00;1.40;;;19.70;99.90;;;;;;5088615;28;20462;-68
2021/07/06 06:09:15;;;;;;;3.15;1.40;;;19.80;99.90;;;;;;5085199;28;20802;-68
2021/07/06 06:11:42;;;;;;;3.25;1.50;;;19.90;99.90;;;;;;5086776;28;20105;-69
2021/07/06 06:14:09;;;;;;;3.83;1.40;;;19.90;99.90;;;;;;5085543;28;20109;-68
2021/07/06 06:16:38;;;;;;;4.63;2.00;;;20.00;99.90;;;;;;5085523;28;20495;-68
2021/07/06 06:19:05;;;;;;;2.47;1.30;;;20.10;99.90;;;;;;5085858;28;20075;-68
2021/07/06 06:21:33;;;;;;;4.03;1.30;;;20.20;99.90;;;;;;5083810;28;20040;-68
2021/07/06 06:24:00;;;;;;;1.73;1.40;;;20.20;99.90;;;;;;5083367;28;20048;-68
2021/07/06 06:26:27;;;;;;;4.18;1.70;;;20.20;99.90;;;;;;5081112;28;20146;-68
2021/07/06 06:28:54;;;;;;;5.22;1.50;;;20.30;99.90;;;;;;5085379;28;20079;-68
2021/07/06 06:31:21;;;;;;;3.85;1.52;;;20.40;99.90;;;;;;5083872;28;20044;-68
2021/07/06 06:33:49;;;;;;;3.35;1.30;;;20.40;99.90;;;;;;5080720;28;20055;-68
2021/07/06 06:36:17;;;;;;;2.63;1.33;;;20.50;99.90;;;;;;5084659;28;20095;-67
2021/07/06 06:38:44;;;;;;;4.38;1.50;;;20.70;99.90;;;;;;5084202;28;20101;-68
2021/07/06 06:41:11;;;;;;;3.47;1.33;;;20.90;99.90;;;;;;5086250;28;20040;-68
2021/07/06 06:43:38;;;;;;;5.60;1.42;;;21.10;99.90;;;;;;5084211;28;20058;-68
2021/07/06 06:46:05;;;;;;;3.42;1.40;;;21.20;99.90;;;;;;5082811;28;20075;-68
2021/07/06 06:48:32;;;;;;;2.63;1.30;;;21.20;99.90;;;;;;5085219;28;20104;-68
2021/07/06 06:51:01;;;;;;;2.72;1.25;;;21.20;99.90;;;;;;5084556;28;20071;-68
2021/07/06 06:53:28;;;;;;;4.88;1.50;;;21.20;99.90;;;;;;5086408;28;20082;-68
2021/07/06 06:55:55;;;;;;;4.95;1.65;;;21.30;99.90;;;;;;5083745;28;20051;-67
2021/07/06 06:58:22;;;;;;;4.63;1.88;;;21.40;99.90;;;;;;5084861;28;20044;-67
2021/07/06 07:00:49;;;;;;;2.58;1.25;;;21.60;99.90;;;;;;5084576;28;20487;-68
2021/07/06 07:03:16;;;;;;;5.22;1.50;;;21.60;99.90;;;;;;5084878;28;20109;-68
2021/07/06 07:05:43;;;;;;;2.90;1.42;;;21.60;99.90;;;;;;5081421;28;20086;-67
2021/07/06 07:08:11;;;;;;;3.00;1.35;;;21.50;99.90;;;;;;5081901;28;21751;-68
2021/07/06 07:10:39;;;;;;;5.10;1.88;;;21.50;99.90;;;;;;5083185;28;20051;-68
2021/07/06 07:13:07;;;;;;;7.75;1.60;;;21.60;99.90;;;;;;5084393;28;20090;-68
2021/07/06 07:15:34;;;;;;;4.20;1.60;;;21.70;99.90;;;;;;5081565;28;20449;-68
2021/07/06 07:18:01;;;;;;;2.95;1.30;;;21.80;99.90;;;;;;5081513;28;20105;-69
2021/07/06 07:20:28;;;;;;;4.60;1.48;;;22.00;99.90;;;;;;5083442;28;20471;-68
2021/07/06 07:22:55;;;;;;;2.72;1.27;;;22.00;99.90;;;;;;5083544;28;20052;-68
2021/07/06 07:25:24;;;;;;;5.95;1.60;;;22.20;99.90;;;;;;5083950;28;20075;-68
2021/07/06 07:27:51;;;;;;;4.82;1.42;;;22.30;99.90;;;;;;5077742;28;20052;-68
2021/07/06 07:30:21;;;;;;;2.70;1.33;;;22.50;99.90;;;;;;5081381;28;20508;-68
2021/07/06 07:32:48;;;;;;;3.70;1.33;;;22.50;99.90;;;;;;5079314;28;20079;-68
2021/07/06 07:35:16;;;;;;;2.60;1.30;;;22.60;99.90;;;;;;5081503;28;20136;-68
2021/07/06 07:37:44;;;;;;;5.15;1.60;;;22.70;99.90;;;;;;5081159;28;20162;-68
2021/07/06 07:40:13;;;;;;;2.17;1.30;;;22.70;99.90;;;;;;5085044;28;20077;-68
2021/07/06 07:42:41;;;;;;;3.63;1.30;;;22.80;99.90;;;;;;5087058;28;20048;-68
2021/07/06 07:45:09;;;;;;;3.53;1.50;;;22.90;99.90;;;;;;5085537;28;20044;-68
2021/07/06 07:47:36;;;;;;;6.20;1.30;;;22.90;99.90;;;;;;5081650;28;20039;-68
2021/07/06 07:50:05;;;;;;;3.08;1.20;;;23.10;99.90;;;;;;5085614;28;20472;-68
2021/07/06 07:52:33;;;;;;;9.15;1.60;;;23.30;99.90;;;;;;5081204;28;20522;-68
2021/07/06 07:55:00;;;;;;;4.07;1.83;;;23.30;99.90;;;;;;5085467;28;20142;-68
2021/07/06 07:57:27;;;;;;;2.17;1.25;;;23.40;99.90;;;;;;5083782;27;20047;-68
2021/07/06 07:59:56;;;;;;;2.92;1.10;;;23.40;99.90;;;;;;5082817;28;20527;-68
2021/07/06 08:02:24;;;;;;;4.90;1.50;;;23.50;99.90;;;;;;5084430;28;20382;-68
2021/07/06 08:04:51;;;;;;;4.68;1.20;;;23.50;99.90;;;;;;5081679;28;20071;-68
2021/07/06 08:07:19;;;;;;;3.20;1.30;;;23.60;99.90;;;;;;5081886;28;21082;-68
2021/07/06 08:09:46;;;;;;;5.15;1.30;;;23.80;99.90;;;;;;5080946;28;20132;-68
2021/07/06 08:12:13;;;;;;;4.20;1.63;;;23.90;99.90;;;;;;5087506;28;20092;-68
2021/07/06 08:14:41;;;;;;;3.58;1.25;;;23.90;99.90;;;;;;5083694;28;20051;-68
2021/07/06 08:17:09;;;;;;;2.38;1.50;;;24.00;99.90;;;;;;5084525;28;20082;-68
2021/07/06 08:19:37;;;;;;;6.00;1.45;;;24.00;99.90;;;;;;5083232;28;20079;-68
2021/07/06 08:22:04;;;;;;;3.20;1.33;;;24.30;99.90;;;;;;5084885;28;20097;-69
2021/07/06 08:24:31;;;;;;;3.22;1.25;;;24.60;99.90;;;;;;5082666;28;20046;-68
2021/07/06 08:26:58;;;;;;;5.18;1.13;;;24.90;99.90;;;;;;5085097;28;20091;-68
2021/07/06 08:29:27;;;;;;;1.88;1.00;;;24.80;99.90;;;;;;5084523;28;20052;-68
2021/07/06 08:31:54;;;;;;;7.05;1.52;;;24.80;99.90;;;;;;5083018;28;20180;-69
2021/07/06 08:34:22;;;;;;;3.80;1.50;;;24.80;99.90;;;;;;5083389;28;20047;-68
2021/07/06 08:36:49;;;;;;;3.42;1.38;;;24.90;99.90;;;;;;5084247;28;20583;-68
2021/07/06 08:39:16;;;;;;;2.33;1.10;;;25.00;99.90;;;;;;5085900;28;20141;-69
2021/07/06 08:41:43;;;;;;;2.92;1.08;;;25.20;99.90;;;;;;5083789;28;20082;-69
2021/07/06 08:44:11;;;;;;;8.18;1.65;;;25.60;99.90;;;;;;5085540;28;20087;-68
2021/07/06 08:46:39;;;;;;;3.33;1.38;;;25.80;99.90;;;;;;5086886;28;20102;-69
2021/07/06 08:49:07;;;;;;;1.88;1.10;;;25.90;99.90;;;;;;5085884;28;20083;-69
2021/07/06 08:51:36;;;;;;;2.53;1.20;;;26.30;99.90;;;;;;5086467;28;20503;-69
2021/07/06 08:54:03;;;;;;;2.10;1.15;;;26.80;99.90;;;;;;5085247;28;20100;-69
2021/07/06 08:56:30;;;;;;;3.38;1.30;;;26.90;99.90;;;;;;5085735;28;20051;-69
2021/07/06 08:58:57;;;;;;;4.05;1.30;;;26.90;99.90;;;;;;5087969;28;20135;-69
2021/07/06 09:01:29;;;;;;;5.50;1.60;;;27.30;99.90;;;;;;5086157;28;20117;-69
2021/07/06 09:03:57;;;;;;;5.80;1.33;;;27.80;99.90;;;;;;5084775;28;20071;-69
2021/07/06 09:06:25;;;;;;;1.90;1.00;;;28.30;99.90;;;;;;5087147;28;20079;-68
2021/07/06 09:15:37;;;;;;;4.55;1.45;;;29.60;99.90;;;;;;5088044;28;20111;-69
2021/07/06 09:18:07;;;;;;;3.25;1.15;;;30.00;99.90;;;;;;5085544;28;20469;-69
2021/07/06 09:20:36;;;;;;;3.58;1.20;;;29.60;99.90;;;;;;5085312;28;20126;-69
2021/07/06 09:23:19;;;;;;;2.38;1.20;;;29.60;99.90;;;;;;5086144;28;20126;-69
2021/07/06 09:25:47;;;;;;;3.17;1.30;;;29.50;99.90;;;;;;5084351;28;20142;-69
2021/07/06 09:28:23;;;;;;;2.75;1.45;;;30.10;99.90;;;;;;5084219;28;20094;-69
2021/07/06 09:30:51;;;;;;;4.50;1.27;;;30.50;99.90;;;;;;5085970;28;20123;-69
2021/07/06 09:33:29;;;;;;;2.80;1.20;;;31.10;99.90;;;;;;5084633;28;20412;-69
2021/07/06 09:35:56;;;;;;;2.35;1.10;;;31.50;99.90;;;;;;5086783;28;20139;-69
2021/07/06 09:38:23;;;;;;;5.10;1.10;;;31.60;99.90;;;;;;5087744;28;20467;-69
2021/07/06 09:40:51;;;;;;;2.17;1.08;;;31.00;99.90;;;;;;5084050;28;20502;-69
2021/07/06 09:43:23;;;;;;;1.05;0.90;;;30.90;99.90;;;;;;5084751;28;20055;-69
2021/07/06 09:46:04;;;;;;;6.43;1.67;;;30.50;99.90;;;;;;5087271;28;20079;-69
2021/07/06 09:48:32;;;;;;;7.07;1.10;;;31.10;99.90;;;;;;5084778;28;20484;-69
2021/07/06 09:51:17;;;;;;;5.70;1.30;;;31.30;99.90;;;;;;5086658;28;20537;-69
2021/07/06 09:53:47;;;;;;;4.25;1.00;;;32.20;99.90;;;;;;5085153;28;20108;-69
2021/07/06 09:56:16;;;;;;;3.60;1.10;;;32.80;99.90;;;;;;5087808;28;20590;-69
2021/07/06 09:58:54;;;;;;;5.45;1.30;;;33.30;99.90;;;;;;5083632;28;20048;-69
2021/07/06 10:01:23;;;;;;;5.03;1.20;;;32.60;99.90;;;;;;5082675;28;20079;-69
2021/07/06 10:03:51;;;;;;;1.33;1.00;;;32.50;99.90;;;;;;5083385;28;20048;-69
2021/07/06 10:06:21;;;;;;;3.13;1.20;;;32.40;99.90;;;;;;5084170;28;20508;-69
2021/07/06 10:08:49;;;;;;;4.07;1.38;;;32.40;99.90;;;;;;5081920;28;20400;-69
2021/07/06 10:11:17;;;;;;;3.15;1.20;;;31.90;99.90;;;;;;5081058;28;20055;-70
2021/07/06 10:13:44;;;;;;;5.03;1.35;;;32.50;99.90;;;;;;5080468;28;20075;-69
2021/07/06 10:16:11;;;;;;;3.45;1.33;;;32.70;99.90;;;;;;5082182;28;20079;-70
2021/07/06 10:18:39;;;;;;;2.25;1.02;;;32.60;99.90;;;;;;5078919;28;20670;-69
2021/07/06 10:21:06;;;;;;;2.08;1.10;;;32.20;99.90;;;;;;5083708;28;20494;-69
2021/07/06 10:23:35;;;;;;;3.67;1.23;;;31.00;99.90;;;;;;5080110;28;20051;-69
2021/07/06 10:26:04;;;;;;;1.55;1.00;;;30.50;99.90;;;;;;5078549;28;20416;-69
2021/07/06 10:28:32;;;;;;;3.28;1.30;;;29.90;99.90;;;;;;5084569;28;20204;-69
2021/07/06 10:31:15;;;;;;;4.30;1.00;;;29.30;99.90;;;;;;5077241;28;20075;-69
2021/07/06 10:33:44;;;;;;;1.67;0.90;;;28.80;99.90;;;;;;5079828;28;20113;-69
2021/07/06 10:36:13;;;;;;;1.77;0.90;;;29.20;99.90;;;;;;5081470;28;20044;-69
2021/07/06 10:38:45;;;;;;;0.98;0.80;;;29.80;99.90;;;;;;5081382;28;20052;-69
2021/07/06 10:41:22;;;;;;;2.30;0.98;;;30.10;99.90;;;;;;5082276;28;20092;-68
2021/07/06 10:43:58;;;;;;;2.50;1.00;;;30.10;99.90;;;;;;5079803;28;20102;-69
2021/07/06 10:46:46;;;;;;;5.75;1.50;;;29.60;99.90;;;;;;5081948;28;20421;-69
2021/07/06 10:49:27;;;;;;;1.17;1.00;;;29.50;99.90;;;;;;5079678;28;20507;-68
2021/07/06 10:51:54;;;;;;;3.25;1.05;;;28.80;99.90;;;;;;5078125;28;20105;-68
2021/07/06 10:54:33;;;;;;;3.58;1.30;;;28.40;99.90;;;;;;5080238;28;20082;-69
2021/07/06 10:57:14;;;;;;;1.98;1.10;;;28.00;99.90;;;;;;5083551;28;20309;-68
2021/07/06 10:59:41;;;;;;;3.28;1.05;;;27.60;99.90;;;;;;5080942;28;20086;-69
2021/07/06 11:02:09;;;;;;;2.88;1.20;;;27.70;99.90;;;;;;5080268;28;20124;-69
2021/07/06 11:05:11;;;;;;;3.97;1.55;;;27.90;99.90;;;;;;5081006;28;20058;-69
2021/07/06 11:07:58;;;;;;;1.73;1.17;;;28.00;99.90;;;;;;5079030;28;20098;-68
2021/07/06 11:10:41;;;;;;;3.05;1.25;;;28.00;99.90;;;;;;5079024;28;20528;-69
2021/07/06 11:13:31;;;;;;;1.90;1.10;;;28.00;99.90;;;;;;5084191;28;20523;-68
2021/07/06 11:16:00;;;;;;;3.50;1.52;;;27.90;99.90;;;;;;5082457;28;20138;-69
2021/07/06 11:18:48;;;;;;;5.00;1.15;;;27.80;99.90;;;;;;5080820;28;20055;-68
2021/07/06 11:21:38;;;;;;;8.35;1.48;;;25.80;99.90;;;;;;5080723;28;20047;-68
2021/07/06 11:24:19;;;;;;;10.38;2.38;;;23.30;99.90;;;;;;5082306;28;20059;-65
2021/07/06 11:26:46;;;;;;;6.07;2.35;;;21.00;99.90;;;;;;5079112;27;20559;-64
2021/07/06 11:29:25;;;;;;;5.95;1.83;;;20.20;99.90;;;;;;5078470;28;20044;-65
2021/07/06 11:32:13;;;;;;;12.20;2.50;;;20.20;99.90;;;;;;5084748;28;20133;-64
2021/07/06 11:34:41;;;;;;;8.30;1.90;;;19.80;99.90;;;;;;5081167;28;20052;-64
2021/07/06 11:37:13;;;;;;;10.57;2.35;;;20.00;99.90;;;;;;5080312;28;20214;-66
2021/07/06 11:39:40;;;;;;;3.45;1.85;;;20.20;99.90;;;;;;5084130;28;20124;-64
2021/07/06 11:42:08;;;;;;;11.23;2.63;;;20.70;99.90;;;;;;5082210;28;20067;-64
2021/07/06 11:44:35;;;;;;;5.05;2.20;;;21.60;99.90;;;;;;5084736;28;20089;-65
2021/07/06 11:47:10;;;;;;;14.70;3.08;;;22.30;99.90;;;;;;5081903;28;20048;-66
2021/07/06 11:49:37;;;;;;;5.45;2.03;;;23.00;99.90;;;;;;5082322;28;20048;-67
2021/07/06 11:52:05;;;;;;;5.22;1.65;;;23.40;99.90;;;;;;5082905;28;20075;-66
2021/07/06 11:54:34;;;;;;;3.38;1.55;;;23.60;99.90;;;;;;5084214;28;20160;-67
2021/07/06 11:57:05;;;;;;;2.83;1.60;;;23.30;99.90;;;;;;5076286;28;20040;-67
2021/07/06 11:59:33;;;;;;;2.58;1.58;;;23.60;99.90;;;;;;5077717;28;20158;-67
2021/07/06 12:02:05;;;;;;;3.85;1.45;;;24.10;99.90;;;;;;5078942;28;20066;-68
2021/07/06 12:04:32;;;;;;;6.05;1.95;;;24.50;99.90;;;;;;5083288;28;20101;-68
2021/07/06 12:07:07;;;;;;;8.40;2.00;;;25.00;99.90;;;;;;5079976;28;20511;-68
2021/07/06 12:13:06;;;;;;;4.43;1.20;;;24.60;99.90;;;;;;5082816;28;20035;-68
2021/07/06 12:15:44;;;;;;;3.83;1.52;;;24.30;99.90;;;;;;5080155;28;20052;-68
2021/07/06 12:18:11;;;;;;;4.28;1.40;;;24.60;99.90;;;;;;5080916;28;20504;-68
2021/07/06 12:20:38;;;;;;;3.72;1.63;;;24.70;99.90;;;;;;5082331;28;20056;-68
2021/07/06 12:23:05;;;;;;;2.00;1.25;;;25.00;99.90;;;;;;5080562;28;20071;-68
2021/07/06 12:25:33;;;;;;;5.20;1.95;;;25.60;99.90;;;;;;5079629;28;20083;-68
2021/07/06 12:28:00;;;;;;;3.13;1.40;;;25.60;99.90;;;;;;5081062;28;20079;-68
2021/07/06 12:30:28;;;;;;;2.20;1.30;;;25.70;99.90;;;;;;5081543;28;20129;-69
2021/07/06 12:33:05;;;;;;;4.28;1.70;;;25.90;99.90;;;;;;5081870;28;20051;-68
2021/07/06 12:35:32;;;;;;;6.68;1.80;;;26.30;99.90;;;;;;5083255;28;20047;-69
2021/07/06 12:38:02;;;;;;;2.85;1.77;;;26.90;99.90;;;;;;5080574;28;20481;-69
2021/07/06 12:40:29;;;;;;;5.35;1.42;;;26.70;99.90;;;;;;5082381;28;20416;-69
2021/07/06 12:42:57;;;;;;;3.97;1.35;;;26.70;99.90;;;;;;5083431;28;20056;-68
2021/07/06 12:45:32;;;;;;;3.20;1.20;;;27.00;99.90;;;;;;5083436;28;20105;-68
2021/07/06 12:48:00;;;;;;;1.90;0.85;;;27.30;99.90;;;;;;5081441;28;20055;-68
2021/07/06 12:50:28;;;;;;;3.03;1.17;;;28.00;99.90;;;;;;5080372;28;20056;-69
2021/07/06 12:52:57;;;;;;;1.83;0.82;;;28.40;99.90;;;;;;5080127;28;20519;-68
2021/07/06 12:55:25;;;;;;;3.55;1.30;;;27.80;99.90;;;;;;5079989;28;20500;-68
2021/07/06 12:57:54;;;;;;;2.95;1.73;;;27.80;99.90;;;;;;5081343;28;20401;-68
2021/07/06 13:00:22;;;;;;;3.35;1.50;;;27.20;99.90;;;;;;5081191;28;20048;-68
2021/07/06 13:02:51;;;;;;;5.60;1.23;;;27.00;99.90;;;;;;5081275;28;20087;-68
2021/07/06 13:05:25;;;;;;;2.72;1.00;;;27.00;99.90;;;;;;5080618;28;20056;-68